Time;durP1;ratioP1;P1;durP2;ratioP2;P2;SDS_P1;SDS_P2;PMS_P1;PMS_P2;Temp;Humidity;BMP_temperature;BMP_pressure;BME280_temperature;BME280_humidity;BME280_pressure;Samples;Min_cycle;Max_cycle;Signal;HPM_P1;HPM_P2
2023/05/24 00:01:33;;;;;;;3.67;1.65;;;;;;;;;;5027065;28;20410;-62
2023/05/24 00:03:59;;;;;;;2.10;1.40;;;;;;;;;;5025823;28;20049;-62
2023/05/24 00:06:26;;;;;;;3.45;1.30;;;;;;;;;;5026863;28;20041;-62
2023/05/24 00:08:52;;;;;;;1.95;1.20;;;;;;;;;;5026493;28;20398;-62
2023/05/24 00:11:18;;;;;;;2.85;1.20;;;;;;;;;;5025197;28;20061;-62
2023/05/24 00:13:44;;;;;;;2.80;1.30;;;;;;;;;;5026748;28;20486;-62
2023/05/24 00:16:10;;;;;;;2.97;1.40;;;;;;;;;;5026164;28;20030;-62
2023/05/24 00:18:39;;;;;;;2.60;1.30;;;;;;;;;;5026080;28;20038;-62
2023/05/24 00:21:07;;;;;;;2.40;1.00;;;;;;;;;;5026082;28;20056;-62
2023/05/24 00:23:33;;;;;;;3.80;1.48;;;;;;;;;;5026440;28;20047;-62
2023/05/24 00:26:00;;;;;;;1.40;1.00;;;;;;;;;;5024908;28;20095;-61
2023/05/24 00:28:26;;;;;;;2.47;0.70;;;;;;;;;;5022941;28;20322;-62
2023/05/24 00:30:52;;;;;;;2.60;1.08;;;;;;;;;;5026221;28;20484;-61
2023/05/24 00:33:22;;;;;;;3.40;0.75;;;;;;;;;;5025290;28;20547;-61
2023/05/24 00:35:48;;;;;;;3.00;1.10;;;;;;;;;;5021801;28;20083;-62
2023/05/24 00:38:14;;;;;;;1.77;0.77;;;;;;;;;;5025319;28;20538;-62
2023/05/24 00:40:40;;;;;;;0.80;0.60;;;;;;;;;;5025326;28;20091;-62
2023/05/24 00:43:06;;;;;;;0.65;0.43;;;;;;;;;;5025466;28;20053;-61
2023/05/24 00:45:32;;;;;;;0.60;0.50;;;;;;;;;;5025412;28;20359;-61
2023/05/24 00:47:58;;;;;;;1.02;0.50;;;;;;;;;;5025247;28;20041;-61
2023/05/24 00:50:24;;;;;;;1.15;0.50;;;;;;;;;;5025524;28;20041;-61
2023/05/24 00:52:51;;;;;;;0.20;0.20;;;;;;;;;;5024911;28;20038;-61
2023/05/24 00:55:17;;;;;;;2.17;0.70;;;;;;;;;;5006558;28;20037;-62
2023/05/24 00:57:43;;;;;;;1.17;0.60;;;;;;;;;;5025727;28;20041;-62
2023/05/24 01:00:10;;;;;;;0.70;0.57;;;;;;;;;;5024202;28;20135;-62
2023/05/24 01:02:36;;;;;;;1.48;0.52;;;;;;;;;;5020434;28;20068;-62
2023/05/24 01:05:03;;;;;;;0.63;0.60;;;;;;;;;;5020033;28;20049;-62
2023/05/24 01:07:29;;;;;;;1.08;0.65;;;;;;;;;;5022722;28;20041;-62
2023/05/24 01:10:03;;;;;;;1.58;1.00;;;;;;;;;;5017701;28;20040;-62
2023/05/24 01:12:47;;;;;;;1.98;0.77;;;;;;;;;;5025156;28;20136;-62
2023/05/24 01:15:32;;;;;;;0.85;0.60;;;;;;;;;;5022127;28;20045;-61
2023/05/24 01:18:14;;;;;;;0.70;0.57;;;;;;;;;;5024949;28;20037;-61
2023/05/24 01:20:41;;;;;;;1.58;0.68;;;;;;;;;;5017349;28;20052;-61
2023/05/24 01:23:25;;;;;;;0.60;0.40;;;;;;;;;;5023906;28;20505;-61
2023/05/24 01:26:00;;;;;;;0.70;0.50;;;;;;;;;;5023347;28;20385;-61
2023/05/24 01:28:26;;;;;;;0.73;0.50;;;;;;;;;;5024477;28;20100;-62
2023/05/24 01:30:53;;;;;;;1.30;0.50;;;;;;;;;;5024487;28;20124;-61
2023/05/24 01:33:19;;;;;;;0.60;0.60;;;;;;;;;;5024688;28;21858;-61
2023/05/24 01:35:45;;;;;;;0.45;0.43;;;;;;;;;;5024297;28;20033;-61
2023/05/24 01:38:11;;;;;;;0.88;0.43;;;;;;;;;;5020675;28;20405;-61
2023/05/24 01:40:39;;;;;;;0.80;0.60;;;;;;;;;;5025298;28;20044;-61
2023/05/24 01:43:04;;;;;;;1.02;0.50;;;;;;;;;;5023441;28;20539;-61
2023/05/24 01:45:39;;;;;;;0.50;0.50;;;;;;;;;;5024443;28;20542;-62
2023/05/24 01:48:18;;;;;;;0.80;0.30;;;;;;;;;;5022998;28;20038;-62
2023/05/24 01:51:05;;;;;;;2.53;0.95;;;;;;;;;;5023951;28;20037;-62
2023/05/24 01:53:38;;;;;;;1.00;0.50;;;;;;;;;;5021830;28;20048;-61
2023/05/24 01:56:05;;;;;;;1.23;0.50;;;;;;;;;;5023740;28;20391;-61
2023/05/24 01:58:33;;;;;;;1.67;0.57;;;;;;;;;;5024500;28;20531;-61
2023/05/24 02:00:59;;;;;;;0.88;0.38;;;;;;;;;;5023887;28;20124;-61
2023/05/24 02:03:25;;;;;;;0.95;0.60;;;;;;;;;;5023492;28;20062;-62
2023/05/24 02:05:51;;;;;;;0.93;0.70;;;;;;;;;;5024219;28;20042;-61
2023/05/24 02:08:17;;;;;;;0.82;0.40;;;;;;;;;;5023796;28;20129;-61
2023/05/24 02:10:43;;;;;;;1.25;0.57;;;;;;;;;;5023654;28;20175;-61
2023/05/24 02:13:09;;;;;;;1.15;0.85;;;;;;;;;;5023492;28;20046;-61
2023/05/24 02:15:35;;;;;;;1.38;0.60;;;;;;;;;;5024615;28;20167;-61
2023/05/24 02:18:01;;;;;;;1.30;0.82;;;;;;;;;;5022628;28;20540;-61
2023/05/24 02:20:30;;;;;;;1.70;0.70;;;;;;;;;;5024021;28;20056;-61
2023/05/24 02:22:58;;;;;;;2.90;1.15;;;;;;;;;;5019254;28;20083;-61
2023/05/24 02:25:25;;;;;;;1.45;0.85;;;;;;;;;;5022682;28;20512;-61
2023/05/24 02:27:51;;;;;;;0.82;0.55;;;;;;;;;;5024001;28;20081;-61
2023/05/24 02:30:17;;;;;;;1.60;0.47;;;;;;;;;;5023735;28;20421;-61
2023/05/24 02:32:43;;;;;;;0.95;0.50;;;;;;;;;;5018893;28;20130;-61
2023/05/24 02:35:09;;;;;;;0.98;0.50;;;;;;;;;;5022676;28;20045;-62
2023/05/24 02:37:35;;;;;;;0.57;0.40;;;;;;;;;;5024684;28;20375;-62
2023/05/24 02:40:02;;;;;;;0.60;0.30;;;;;;;;;;5022929;28;20041;-61
2023/05/24 02:42:28;;;;;;;2.33;0.70;;;;;;;;;;5022089;28;20045;-61
2023/05/24 02:44:54;;;;;;;0.65;0.32;;;;;;;;;;5023310;28;20037;-61
2023/05/24 02:47:20;;;;;;;0.52;0.40;;;;;;;;;;5019975;28;20671;-61
2023/05/24 02:49:46;;;;;;;0.57;0.38;;;;;;;;;;5020550;28;20041;-61
2023/05/24 02:52:13;;;;;;;0.32;0.28;;;;;;;;;;5022086;28;20095;-62
2023/05/24 02:54:39;;;;;;;0.28;0.20;;;;;;;;;;5005591;28;20186;-62
2023/05/24 02:57:05;;;;;;;0.30;0.30;;;;;;;;;;5023021;28;20073;-62
2023/05/24 02:59:32;;;;;;;2.08;0.52;;;;;;;;;;5018966;28;20423;-62
2023/05/24 03:01:58;;;;;;;0.77;0.30;;;;;;;;;;5022626;28;20437;-62
2023/05/24 03:04:24;;;;;;;1.05;0.60;;;;;;;;;;5022329;28;20060;-61
2023/05/24 03:06:52;;;;;;;0.32;0.20;;;;;;;;;;5022254;28;20120;-61
2023/05/24 03:09:18;;;;;;;1.40;0.55;;;;;;;;;;5022535;28;20068;-62
2023/05/24 03:11:44;;;;;;;0.38;0.20;;;;;;;;;;5020461;28;20123;-61
2023/05/24 03:14:10;;;;;;;0.80;0.43;;;;;;;;;;5021554;28;20048;-62
2023/05/24 03:16:36;;;;;;;0.55;0.40;;;;;;;;;;5023433;28;20041;-61
2023/05/24 03:19:04;;;;;;;0.77;0.32;;;;;;;;;;5022734;28;20429;-61
2023/05/24 03:21:30;;;;;;;0.45;0.30;;;;;;;;;;5022751;28;20504;-62
2023/05/24 03:23:57;;;;;;;0.63;0.40;;;;;;;;;;5023786;28;20038;-61
2023/05/24 03:26:23;;;;;;;0.85;0.60;;;;;;;;;;5023433;28;20045;-61
2023/05/24 03:28:53;;;;;;;0.57;0.20;;;;;;;;;;5021699;28;20501;-61
2023/05/24 03:31:25;;;;;;;0.43;0.22;;;;;;;;;;5022823;28;20045;-61
2023/05/24 03:33:51;;;;;;;1.20;0.40;;;;;;;;;;5020531;28;20450;-61
2023/05/24 03:36:17;;;;;;;0.30;0.30;;;;;;;;;;5021881;28;20045;-61
2023/05/24 03:38:43;;;;;;;0.32;0.30;;;;;;;;;;5019547;28;20037;-62
2023/05/24 03:41:10;;;;;;;0.88;0.40;;;;;;;;;;5022506;28;20049;-61
2023/05/24 03:43:36;;;;;;;0.50;0.40;;;;;;;;;;5023205;28;20041;-61
2023/05/24 03:46:02;;;;;;;0.25;0.25;;;;;;;;;;5022831;28;20795;-62
2023/05/24 03:48:28;;;;;;;0.60;0.30;;;;;;;;;;5022845;28;20521;-61
2023/05/24 03:50:54;;;;;;;0.43;0.30;;;;;;;;;;5022286;28;20409;-61
2023/05/24 03:53:21;;;;;;;0.40;0.30;;;;;;;;;;5022920;28;20237;-61
2023/05/24 03:55:47;;;;;;;0.32;0.22;;;;;;;;;;5022095;28;20187;-62
2023/05/24 03:58:13;;;;;;;0.57;0.45;;;;;;;;;;5023098;28;20054;-61
2023/05/24 04:00:39;;;;;;;0.40;0.30;;;;;;;;;;5023397;28;20084;-61
2023/05/24 04:03:07;;;;;;;0.45;0.40;;;;;;;;;;5022209;28;20068;-62
2023/05/24 04:05:33;;;;;;;0.45;0.40;;;;;;;;;;5023534;28;20045;-61
2023/05/24 04:08:00;;;;;;;0.50;0.30;;;;;;;;;;5018520;28;20041;-61
2023/05/24 04:10:26;;;;;;;0.85;0.50;;;;;;;;;;5017137;28;20037;-61
2023/05/24 04:12:52;;;;;;;0.30;0.25;;;;;;;;;;5022882;28;20505;-61
2023/05/24 04:15:18;;;;;;;0.15;0.15;;;;;;;;;;5022589;28;20052;-61
2023/05/24 04:17:44;;;;;;;0.35;0.20;;;;;;;;;;5022898;28;20037;-61
2023/05/24 04:20:11;;;;;;;0.30;0.20;;;;;;;;;;5022634;28;20486;-61
2023/05/24 04:22:37;;;;;;;0.63;0.30;;;;;;;;;;5022594;28;20094;-61
2023/05/24 04:25:04;;;;;;;0.57;0.43;;;;;;;;;;5015927;28;20655;-61
2023/05/24 04:27:31;;;;;;;0.90;0.30;;;;;;;;;;5020663;28;20444;-61
2023/05/24 04:29:57;;;;;;;1.13;0.60;;;;;;;;;;5022013;28;20041;-61
2023/05/24 04:32:23;;;;;;;0.38;0.28;;;;;;;;;;5021262;28;20049;-61
2023/05/24 04:34:51;;;;;;;0.60;0.30;;;;;;;;;;5022548;28;20109;-61
2023/05/24 04:37:17;;;;;;;0.75;0.50;;;;;;;;;;5018997;28;20047;-61
2023/05/24 04:39:46;;;;;;;1.73;0.50;;;;;;;;;;5022259;28;20045;-61
2023/05/24 04:42:12;;;;;;;0.95;0.43;;;;;;;;;;5024641;28;20045;-61
2023/05/24 04:44:41;;;;;;;1.05;0.50;;;;;;;;;;5027171;28;20593;-61
2023/05/24 04:47:08;;;;;;;0.82;0.32;;;;;;;;;;5023076;28;20096;-61
2023/05/24 04:49:34;;;;;;;1.10;0.40;;;;;;;;;;5027094;28;20037;-61
2023/05/24 04:52:00;;;;;;;0.90;0.45;;;;;;;;;;5024705;28;20304;-61
2023/05/24 04:54:26;;;;;;;0.43;0.40;;;;;;;;;;5025841;28;20041;-61
2023/05/24 04:56:52;;;;;;;0.68;0.40;;;;;;;;;;5025409;28;20037;-61
2023/05/24 04:59:18;;;;;;;0.30;0.30;;;;;;;;;;5025323;28;20092;-61
2023/05/24 05:01:44;;;;;;;1.95;0.30;;;;;;;;;;5026499;28;20470;-61
2023/05/24 05:04:10;;;;;;;1.00;0.65;;;;;;;;;;5025165;28;20088;-62
2023/05/24 05:06:42;;;;;;;0.68;0.45;;;;;;;;;;5026408;28;20308;-61
2023/05/24 05:09:09;;;;;;;1.35;0.45;;;;;;;;;;5025782;28;20566;-61
2023/05/24 05:11:35;;;;;;;0.20;0.20;;;;;;;;;;5017570;28;20045;-61
2023/05/24 05:14:01;;;;;;;0.20;0.13;;;;;;;;;;5025180;28;20807;-61
2023/05/24 05:16:27;;;;;;;1.35;0.20;;;;;;;;;;5025649;28;20038;-61
2023/05/24 05:18:53;;;;;;;1.00;0.40;;;;;;;;;;5025413;28;20045;-61
2023/05/24 05:21:20;;;;;;;0.20;0.17;;;;;;;;;;5024274;28;20064;-62
2023/05/24 05:23:46;;;;;;;0.60;0.25;;;;;;;;;;5021532;28;20060;-61
2023/05/24 05:26:12;;;;;;;0.38;0.35;;;;;;;;;;5024894;28;20037;-61
2023/05/24 05:28:38;;;;;;;1.05;0.50;;;;;;;;;;5024690;28;20048;-61
2023/05/24 05:31:04;;;;;;;1.02;0.43;;;;;;;;;;5022518;28;20508;-61
2023/05/24 05:33:31;;;;;;;0.40;0.30;;;;;;;;;;5025449;28;20033;-61
2023/05/24 05:35:57;;;;;;;1.05;0.32;;;;;;;;;;5024634;28;20037;-61
2023/05/24 05:38:23;;;;;;;1.48;0.60;;;;;;;;;;5024796;28;20128;-61
2023/05/24 05:40:49;;;;;;;1.13;0.45;;;;;;;;;;5025644;28;20502;-61
2023/05/24 05:43:15;;;;;;;0.85;0.40;;;;;;;;;;5024428;28;20049;-61
2023/05/24 05:45:41;;;;;;;0.73;0.50;;;;;;;;;;5025080;28;20037;-61
2023/05/24 05:48:07;;;;;;;2.00;0.60;;;;;;;;;;5020717;28;20119;-61
2023/05/24 05:50:33;;;;;;;0.63;0.47;;;;;;;;;;5025514;28;20069;-61
2023/05/24 05:52:59;;;;;;;1.30;0.73;;;;;;;;;;5024406;28;20076;-61
2023/05/24 05:55:25;;;;;;;2.28;0.70;;;;;;;;;;5023042;28;20044;-61
2023/05/24 05:57:51;;;;;;;0.70;0.40;;;;;;;;;;5022862;28;20399;-61
2023/05/24 06:00:17;;;;;;;1.40;0.40;;;;;;;;;;5023070;28;20045;-61
2023/05/24 06:02:43;;;;;;;0.60;0.60;;;;;;;;;;5024445;28;20053;-61
2023/05/24 06:05:09;;;;;;;0.35;0.30;;;;;;;;;;5007000;28;20100;-61
2023/05/24 06:07:36;;;;;;;0.38;0.20;;;;;;;;;;5022304;28;20041;-61
2023/05/24 06:10:03;;;;;;;0.28;0.20;;;;;;;;;;5024349;28;20478;-61
2023/05/24 06:12:29;;;;;;;1.35;0.50;;;;;;;;;;5023680;28;20046;-61
2023/05/24 06:14:56;;;;;;;1.08;0.57;;;;;;;;;;5024870;28;20044;-61
2023/05/24 06:17:23;;;;;;;0.75;0.40;;;;;;;;;;5020979;28;20675;-61
2023/05/24 06:19:52;;;;;;;1.65;0.52;;;;;;;;;;5023852;28;20087;-61
2023/05/24 06:22:18;;;;;;;0.98;0.60;;;;;;;;;;5021888;28;20104;-61
2023/05/24 06:24:44;;;;;;;0.52;0.40;;;;;;;;;;5024354;28;20076;-61
2023/05/24 06:27:10;;;;;;;1.33;0.60;;;;;;;;;;5020781;28;20037;-61
2023/05/24 06:29:36;;;;;;;1.40;0.70;;;;;;;;;;5023422;28;20048;-61
2023/05/24 06:32:02;;;;;;;1.25;1.00;;;;;;;;;;5017887;28;20049;-61
2023/05/24 06:34:28;;;;;;;1.05;0.50;;;;;;;;;;5018805;28;20048;-61
2023/05/24 06:36:54;;;;;;;0.77;0.50;;;;;;;;;;5024025;28;20037;-61
2023/05/24 06:39:20;;;;;;;0.35;0.28;;;;;;;;;;5023109;28;20258;-61
2023/05/24 06:41:47;;;;;;;0.43;0.35;;;;;;;;;;5024250;28;20068;-61
2023/05/24 06:44:13;;;;;;;1.00;0.52;;;;;;;;;;4999545;28;20053;-61
2023/05/24 06:46:39;;;;;;;0.90;0.50;;;;;;;;;;5022826;28;20136;-61
2023/05/24 06:49:05;;;;;;;0.30;0.30;;;;;;;;;;5005573;28;20045;-61
2023/05/24 06:51:32;;;;;;;0.28;0.25;;;;;;;;;;5022452;28;20150;-61
2023/05/24 06:53:58;;;;;;;1.08;0.60;;;;;;;;;;5022371;28;20045;-61
2023/05/24 06:56:25;;;;;;;1.25;0.70;;;;;;;;;;5019517;28;20785;-61
2023/05/24 06:58:51;;;;;;;2.42;0.95;;;;;;;;;;5021335;28;20041;-61
2023/05/24 07:01:17;;;;;;;1.80;0.90;;;;;;;;;;5019978;28;20099;-63
2023/05/24 07:03:43;;;;;;;1.13;0.90;;;;;;;;;;5018209;28;20112;-61
2023/05/24 07:06:12;;;;;;;2.42;1.00;;;;;;;;;;5019510;28;20037;-61
2023/05/24 07:08:39;;;;;;;2.60;1.02;;;;;;;;;;5016991;28;20048;-61
2023/05/24 07:11:06;;;;;;;1.95;1.08;;;;;;;;;;5010434;28;20050;-61
2023/05/24 07:13:32;;;;;;;1.23;0.52;;;;;;;;;;5018996;28;20138;-62
2023/05/24 07:15:59;;;;;;;2.03;0.82;;;;;;;;;;5012545;28;20042;-62
2023/05/24 07:18:25;;;;;;;2.47;0.90;;;;;;;;;;5022297;28;20053;-62
2023/05/24 07:20:51;;;;;;;1.80;0.75;;;;;;;;;;5022110;28;20480;-61
2023/05/24 07:23:17;;;;;;;0.95;0.70;;;;;;;;;;5022724;28;20749;-62
2023/05/24 07:25:43;;;;;;;1.77;0.88;;;;;;;;;;5023705;28;20029;-62
2023/05/24 07:28:09;;;;;;;1.90;0.88;;;;;;;;;;5016542;28;20128;-62
2023/05/24 07:30:37;;;;;;;4.40;1.17;;;;;;;;;;5022521;28;20038;-62
2023/05/24 07:33:03;;;;;;;0.50;0.50;;;;;;;;;;5024861;28;20045;-62
2023/05/24 07:35:29;;;;;;;0.90;0.70;;;;;;;;;;5008373;28;20498;-62
2023/05/24 07:37:55;;;;;;;2.17;1.40;;;;;;;;;;5024648;28;20426;-63
2023/05/24 07:40:21;;;;;;;2.25;1.02;;;;;;;;;;5025198;28;20037;-61
2023/05/24 07:42:47;;;;;;;2.38;1.20;;;;;;;;;;5023831;28;20049;-61
2023/05/24 07:45:13;;;;;;;1.17;0.77;;;;;;;;;;5024892;28;20037;-61
2023/05/24 07:47:40;;;;;;;2.10;1.13;;;;;;;;;;5024432;28;20179;-66
2023/05/24 07:50:06;;;;;;;2.20;1.48;;;;;;;;;;5025636;28;20037;-66
2023/05/24 07:52:32;;;;;;;1.92;0.98;;;;;;;;;;5025171;28;20466;-58
2023/05/24 07:54:58;;;;;;;1.45;1.00;;;;;;;;;;5024271;28;20147;-65
2023/05/24 07:57:24;;;;;;;4.38;1.05;;;;;;;;;;5025162;28;20044;-64
2023/05/24 07:59:50;;;;;;;2.70;1.13;;;;;;;;;;5023970;28;20508;-62
2023/05/24 08:02:16;;;;;;;3.20;1.40;;;;;;;;;;5024017;28;20088;-63
2023/05/24 08:04:42;;;;;;;3.47;1.27;;;;;;;;;;5025436;28;20660;-63
2023/05/24 08:07:08;;;;;;;1.50;1.00;;;;;;;;;;5019430;28;20042;-63
2023/05/24 08:09:37;;;;;;;1.42;0.90;;;;;;;;;;5003380;28;20088;-63
2023/05/24 08:12:03;;;;;;;2.10;1.15;;;;;;;;;;5008331;28;20116;-63
2023/05/24 08:14:30;;;;;;;1.65;0.95;;;;;;;;;;5024832;28;20037;-63
2023/05/24 08:16:56;;;;;;;1.27;0.95;;;;;;;;;;5026118;28;20037;-63
2023/05/24 08:19:22;;;;;;;0.80;0.70;;;;;;;;;;5028869;28;20056;-63
2023/05/24 08:21:48;;;;;;;2.72;1.40;;;;;;;;;;5028435;28;20580;-63
2023/05/24 08:24:14;;;;;;;2.80;1.30;;;;;;;;;;5028294;28;20482;-62
2023/05/24 08:26:40;;;;;;;3.30;1.42;;;;;;;;;;5029311;28;20045;-62
2023/05/24 08:29:06;;;;;;;1.98;1.30;;;;;;;;;;5028744;28;20091;-63
2023/05/24 08:31:32;;;;;;;3.78;1.52;;;;;;;;;;5014070;28;20093;-62
2023/05/24 08:34:00;;;;;;;1.40;1.00;;;;;;;;;;5005730;28;20100;-62
2023/05/24 08:36:26;;;;;;;2.70;1.10;;;;;;;;;;5005715;28;20043;-62
2023/05/24 08:38:52;;;;;;;1.67;1.10;;;;;;;;;;5023815;28;20041;-62
2023/05/24 08:41:18;;;;;;;1.52;0.90;;;;;;;;;;5027921;28;20053;-62
2023/05/24 08:43:44;;;;;;;4.70;1.00;;;;;;;;;;5020766;28;20041;-62
2023/05/24 08:46:11;;;;;;;1.50;0.98;;;;;;;;;;5027389;28;20086;-62
2023/05/24 08:48:47;;;;;;;1.27;0.82;;;;;;;;;;5028142;28;20041;-63
2023/05/24 08:51:14;;;;;;;3.58;1.17;;;;;;;;;;5026578;28;20132;-62
2023/05/24 08:53:47;;;;;;;2.75;0.90;;;;;;;;;;5028078;28;20350;-62
2023/05/24 08:56:16;;;;;;;1.98;1.00;;;;;;;;;;5026805;28;20041;-62
2023/05/24 08:58:42;;;;;;;1.65;0.98;;;;;;;;;;5011964;28;20045;-62
2023/05/24 09:01:08;;;;;;;1.02;0.70;;;;;;;;;;5027984;28;20093;-62
2023/05/24 09:03:35;;;;;;;1.30;0.80;;;;;;;;;;5012055;28;20038;-62
2023/05/24 09:06:02;;;;;;;1.38;0.80;;;;;;;;;;5001474;28;20420;-62
2023/05/24 09:08:28;;;;;;;1.67;0.80;;;;;;;;;;5013596;28;20411;-62
2023/05/24 09:10:55;;;;;;;3.03;0.70;;;;;;;;;;5007093;28;20056;-64
2023/05/24 09:13:22;;;;;;;1.10;0.80;;;;;;;;;;5004004;28;20532;-63
2023/05/24 09:15:48;;;;;;;2.53;0.70;;;;;;;;;;5023319;28;20037;-63
2023/05/24 09:18:14;;;;;;;1.67;0.70;;;;;;;;;;5024468;28;20247;-63
2023/05/24 09:20:40;;;;;;;2.00;1.10;;;;;;;;;;5018575;28;20110;-64
2023/05/24 09:23:07;;;;;;;3.20;1.20;;;;;;;;;;5026580;28;20212;-64
2023/05/24 09:25:33;;;;;;;1.48;1.08;;;;;;;;;;5024453;28;20045;-63
2023/05/24 09:28:04;;;;;;;3.22;1.30;;;;;;;;;;5023264;28;20041;-63
2023/05/24 09:30:30;;;;;;;2.47;1.30;;;;;;;;;;5024901;28;20102;-63
2023/05/24 09:32:57;;;;;;;2.58;1.17;;;;;;;;;;5024856;28;20494;-63
2023/05/24 09:35:25;;;;;;;2.22;1.50;;;;;;;;;;5023139;28;20041;-63
2023/05/24 09:37:54;;;;;;;2.40;1.33;;;;;;;;;;5022943;28;20044;-62
2023/05/24 09:40:20;;;;;;;1.88;0.80;;;;;;;;;;5005311;28;20525;-62
2023/05/24 09:42:50;;;;;;;1.15;0.90;;;;;;;;;;5010372;28;20042;-62
2023/05/24 09:45:16;;;;;;;2.00;0.95;;;;;;;;;;5007686;28;20062;-62
2023/05/24 09:47:43;;;;;;;2.08;1.00;;;;;;;;;;5019906;28;20046;-62
2023/05/24 09:50:13;;;;;;;2.67;0.90;;;;;;;;;;5012027;28;20069;-62
2023/05/24 09:52:40;;;;;;;3.00;1.02;;;;;;;;;;5004424;28;20033;-62
2023/05/24 09:55:16;;;;;;;3.13;1.40;;;;;;;;;;5010107;28;20081;-62
2023/05/24 09:58:01;;;;;;;2.38;1.05;;;;;;;;;;5006643;28;20045;-62
2023/05/24 10:00:28;;;;;;;1.25;0.85;;;;;;;;;;5003059;28;20485;-62
2023/05/24 10:03:05;;;;;;;3.40;1.05;;;;;;;;;;5008166;28;20089;-62
2023/05/24 10:05:31;;;;;;;3.97;1.23;;;;;;;;;;5012196;28;20061;-62
2023/05/24 10:07:58;;;;;;;1.73;0.85;;;;;;;;;;5005839;28;20046;-62
2023/05/24 10:10:28;;;;;;;4.65;1.30;;;;;;;;;;5017534;28;20430;-62
2023/05/24 10:12:55;;;;;;;3.45;1.00;;;;;;;;;;5001322;28;20043;-62
2023/05/24 10:15:22;;;;;;;1.65;1.00;;;;;;;;;;4992397;28;20042;-62
2023/05/24 10:17:48;;;;;;;1.52;0.60;;;;;;;;;;5003045;28;20127;-62
2023/05/24 10:20:14;;;;;;;2.28;1.02;;;;;;;;;;5004108;28;20058;-62
2023/05/24 10:22:44;;;;;;;2.13;1.20;;;;;;;;;;5003450;28;20038;-62
2023/05/24 10:25:15;;;;;;;2.50;1.10;;;;;;;;;;5003409;28;20037;-62
2023/05/24 10:27:41;;;;;;;2.60;1.63;;;;;;;;;;5011853;28;20034;-62
2023/05/24 10:30:28;;;;;;;2.22;1.30;;;;;;;;;;4999758;28;20168;-63
2023/05/24 10:32:55;;;;;;;2.03;1.55;;;;;;;;;;4992872;28;20576;-62
2023/05/24 10:35:22;;;;;;;2.53;1.42;;;;;;;;;;5002706;28;20037;-62
2023/05/24 10:37:48;;;;;;;2.10;1.00;;;;;;;;;;4997232;28;20038;-62
2023/05/24 10:40:21;;;;;;;1.67;0.88;;;;;;;;;;4999956;28;20768;-62
2023/05/24 10:42:47;;;;;;;1.60;0.93;;;;;;;;;;5002343;28;20049;-62
2023/05/24 10:45:22;;;;;;;4.63;1.20;;;;;;;;;;5000268;28;20413;-62
2023/05/24 10:47:48;;;;;;;1.38;1.15;;;;;;;;;;5001295;28;20046;-62
2023/05/24 10:50:18;;;;;;;2.97;1.17;;;;;;;;;;4999643;28;20057;-62
2023/05/24 10:52:44;;;;;;;3.13;1.05;;;;;;;;;;5003833;28;20406;-62
2023/05/24 10:55:12;;;;;;;1.55;0.98;;;;;;;;;;5005455;28;20065;-61
2023/05/24 10:57:38;;;;;;;4.72;1.23;;;;;;;;;;5004947;28;20371;-61
2023/05/24 11:00:21;;;;;;;2.60;1.20;;;;;;;;;;4988374;28;20131;-62
2023/05/24 11:02:50;;;;;;;2.17;1.17;;;;;;;;;;5005814;28;20061;-62
2023/05/24 11:05:17;;;;;;;4.03;1.40;;;;;;;;;;5005570;28;20041;-62
2023/05/24 11:07:43;;;;;;;1.55;1.10;;;;;;;;;;5006172;28;20097;-62
2023/05/24 11:10:29;;;;;;;2.00;1.42;;;;;;;;;;5006611;28;20049;-62
2023/05/24 11:13:01;;;;;;;2.95;1.02;;;;;;;;;;5005063;28;20046;-62
2023/05/24 11:15:28;;;;;;;2.38;1.50;;;;;;;;;;5003091;28;20042;-62
2023/05/24 11:18:12;;;;;;;1.73;1.20;;;;;;;;;;5005470;28;20046;-62
2023/05/24 11:20:39;;;;;;;4.22;1.58;;;;;;;;;;5005583;28;20128;-62
2023/05/24 11:23:05;;;;;;;2.05;1.10;;;;;;;;;;5005673;28;20057;-62
2023/05/24 11:25:36;;;;;;;3.65;1.48;;;;;;;;;;5005664;28;20073;-62
2023/05/24 11:28:03;;;;;;;2.42;1.17;;;;;;;;;;5005586;28;20241;-62
2023/05/24 11:30:32;;;;;;;3.65;1.45;;;;;;;;;;5005386;28;20449;-62
2023/05/24 11:33:01;;;;;;;1.58;1.00;;;;;;;;;;5004576;28;20092;-63
2023/05/24 11:35:27;;;;;;;2.35;1.27;;;;;;;;;;4987163;28;20453;-62
2023/05/24 11:37:53;;;;;;;2.30;1.10;;;;;;;;;;5005411;28;20053;-62
2023/05/24 11:40:19;;;;;;;3.33;1.13;;;;;;;;;;5005086;28;20038;-62
2023/05/24 11:42:46;;;;;;;3.72;1.50;;;;;;;;;;5005703;28;20049;-62
2023/05/24 11:45:15;;;;;;;2.92;1.02;;;;;;;;;;5006104;28;20057;-62
2023/05/24 11:47:41;;;;;;;2.80;1.58;;;;;;;;;;5005773;28;20453;-62
2023/05/24 11:50:07;;;;;;;3.47;1.35;;;;;;;;;;5005727;28;20045;-62
2023/05/24 11:52:37;;;;;;;1.52;1.08;;;;;;;;;;5009223;28;20085;-62
2023/05/24 11:55:04;;;;;;;4.47;1.27;;;;;;;;;;5009118;28;20402;-62
2023/05/24 11:57:38;;;;;;;2.10;1.35;;;;;;;;;;5010150;28;20052;-62
2023/05/24 12:00:09;;;;;;;3.65;1.50;;;;;;;;;;5009379;28;20616;-62
2023/05/24 12:02:36;;;;;;;6.00;1.80;;;;;;;;;;5010128;28;20091;-62
2023/05/24 12:05:08;;;;;;;5.95;2.13;;;;;;;;;;5010651;28;20247;-62
2023/05/24 12:07:35;;;;;;;2.70;1.70;;;;;;;;;;5009612;28;20045;-62
2023/05/24 12:10:03;;;;;;;2.80;1.58;;;;;;;;;;5008491;28;20068;-62
2023/05/24 12:12:29;;;;;;;3.55;1.80;;;;;;;;;;5009321;28;20125;-62
2023/05/24 12:14:55;;;;;;;4.30;1.50;;;;;;;;;;5008384;28;20597;-62
2023/05/24 12:17:22;;;;;;;1.95;1.38;;;;;;;;;;5009334;28;20038;-62
2023/05/24 12:19:50;;;;;;;3.72;1.52;;;;;;;;;;5009004;28;20581;-62
2023/05/24 12:22:16;;;;;;;1.83;1.30;;;;;;;;;;5008503;28;20077;-62
2023/05/24 12:24:42;;;;;;;3.97;1.52;;;;;;;;;;5009598;28;20547;-62
2023/05/24 12:27:09;;;;;;;6.20;1.58;;;;;;;;;;5009343;28;20120;-62
2023/05/24 12:29:41;;;;;;;3.50;1.77;;;;;;;;;;5008569;28;20048;-62
2023/05/24 12:32:11;;;;;;;3.42;1.27;;;;;;;;;;5008993;28;20042;-62
2023/05/24 12:34:37;;;;;;;2.75;1.15;;;;;;;;;;5009076;28;20046;-62
2023/05/24 12:37:03;;;;;;;1.58;1.30;;;;;;;;;;5008027;28;20321;-62
2023/05/24 12:39:30;;;;;;;2.55;1.25;;;;;;;;;;5008635;28;20116;-63
2023/05/24 12:41:57;;;;;;;2.70;1.13;;;;;;;;;;5008911;28;20445;-62
2023/05/24 12:44:24;;;;;;;1.85;1.38;;;;;;;;;;5008075;28;20046;-62
2023/05/24 12:46:52;;;;;;;3.00;1.67;;;;;;;;;;5008480;28;20045;-62
2023/05/24 12:49:18;;;;;;;6.38;1.65;;;;;;;;;;5008678;28;20506;-62
2023/05/24 12:51:44;;;;;;;4.45;1.92;;;;;;;;;;5008192;28;20046;-62
2023/05/24 12:54:10;;;;;;;6.47;1.52;;;;;;;;;;4991307;28;20457;-63
2023/05/24 12:56:36;;;;;;;5.10;1.77;;;;;;;;;;5008848;28;20053;-63
2023/05/24 12:59:03;;;;;;;2.15;1.30;;;;;;;;;;5007680;28;20049;-62
2023/05/24 13:01:29;;;;;;;2.67;1.20;;;;;;;;;;5008479;28;20052;-62
2023/05/24 13:03:55;;;;;;;3.83;1.73;;;;;;;;;;5008476;28;20042;-62
2023/05/24 13:06:21;;;;;;;3.33;1.58;;;;;;;;;;5007591;28;20410;-62
2023/05/24 13:08:47;;;;;;;3.17;1.77;;;;;;;;;;5007876;28;20042;-62
2023/05/24 13:11:13;;;;;;;3.10;1.60;;;;;;;;;;5008129;28;20112;-62
2023/05/24 13:13:39;;;;;;;5.00;1.70;;;;;;;;;;5008824;28;20044;-62
2023/05/24 13:16:07;;;;;;;3.22;1.40;;;;;;;;;;5008013;28;20046;-62
2023/05/24 13:18:33;;;;;;;3.08;1.45;;;;;;;;;;4989786;28;20049;-62
2023/05/24 13:20:59;;;;;;;3.50;1.33;;;;;;;;;;5007758;28;20042;-62
2023/05/24 13:23:26;;;;;;;2.10;1.30;;;;;;;;;;5008158;28;20050;-62
2023/05/24 13:25:52;;;;;;;2.90;1.08;;;;;;;;;;5007430;28;20049;-62
2023/05/24 13:28:18;;;;;;;1.38;0.93;;;;;;;;;;5008020;28;20065;-63
2023/05/24 13:30:46;;;;;;;2.08;1.27;;;;;;;;;;5008538;28;20065;-63
2023/05/24 13:33:12;;;;;;;2.05;1.10;;;;;;;;;;5007472;28;20042;-63
2023/05/24 13:35:38;;;;;;;1.85;1.20;;;;;;;;;;5019970;28;20045;-62
2023/05/24 13:38:04;;;;;;;1.75;1.00;;;;;;;;;;5029140;28;20049;-62
2023/05/24 13:40:31;;;;;;;3.35;1.13;;;;;;;;;;5024284;28;20080;-62
2023/05/24 13:42:57;;;;;;;4.97;1.58;;;;;;;;;;4997067;28;20042;-62
2023/05/24 13:45:23;;;;;;;1.80;1.02;;;;;;;;;;4990109;28;20050;-62
2023/05/24 13:47:50;;;;;;;2.20;1.20;;;;;;;;;;5025512;28;20040;-62
2023/05/24 13:50:16;;;;;;;1.73;0.90;;;;;;;;;;5024646;28;20616;-62
2023/05/24 13:52:42;;;;;;;1.95;1.08;;;;;;;;;;5019524;28;20037;-62
2023/05/24 13:55:09;;;;;;;2.85;1.30;;;;;;;;;;5007915;28;20045;-62
2023/05/24 13:57:35;;;;;;;1.63;0.93;;;;;;;;;;5026039;28;20056;-62
2023/05/24 14:00:02;;;;;;;2.40;1.27;;;;;;;;;;5010628;28;20046;-62
2023/05/24 14:02:28;;;;;;;2.25;1.20;;;;;;;;;;4996920;28;20066;-62
2023/05/24 14:04:55;;;;;;;1.70;0.95;;;;;;;;;;4996095;28;20069;-62
2023/05/24 14:07:21;;;;;;;4.10;1.63;;;;;;;;;;5005314;28;20483;-62
2023/05/24 14:09:47;;;;;;;2.20;1.13;;;;;;;;;;4980452;28;20045;-62
2023/05/24 14:12:13;;;;;;;2.75;1.00;;;;;;;;;;4999031;28;20088;-63
2023/05/24 14:14:39;;;;;;;1.90;1.33;;;;;;;;;;5004692;28;20037;-69
2023/05/24 14:17:05;;;;;;;2.78;1.05;;;;;;;;;;5000317;28;20046;-66
2023/05/24 14:19:33;;;;;;;1.63;0.90;;;;;;;;;;5002356;28;20300;-63
2023/05/24 14:21:59;;;;;;;2.47;1.00;;;;;;;;;;5008864;28;20046;-62
2023/05/24 14:24:25;;;;;;;1.92;1.02;;;;;;;;;;4996988;28;20061;-62
2023/05/24 14:26:51;;;;;;;3.55;1.38;;;;;;;;;;4999675;28;20137;-62
2023/05/24 14:29:17;;;;;;;1.80;1.05;;;;;;;;;;5004241;28;20838;-62
2023/05/24 14:31:43;;;;;;;2.42;0.88;;;;;;;;;;5005193;28;20046;-63
2023/05/24 14:34:10;;;;;;;2.88;1.40;;;;;;;;;;5003525;28;20058;-63
2023/05/24 14:36:37;;;;;;;2.50;1.27;;;;;;;;;;5003349;28;20046;-63
2023/05/24 14:39:03;;;;;;;2.03;1.50;;;;;;;;;;5004819;28;20057;-62
2023/05/24 14:41:29;;;;;;;3.47;1.65;;;;;;;;;;5004786;28;20042;-62
2023/05/24 14:43:55;;;;;;;1.30;0.85;;;;;;;;;;5003755;28;20041;-62